sensor_id;sensor_type;location;lat;lon;timestamp;temperature;humidity
70151;DHT22;57517;43.562;19.540;2023-09-18T00:00:06;487.10;2380.80
70151;DHT22;57517;43.562;19.540;2023-09-18T00:02:38;487.20;2380.80
70151;DHT22;57517;43.562;19.540;2023-09-18T00:05:04;487.10;2380.80
70151;DHT22;57517;43.562;19.540;2023-09-18T00:07:30;487.20;2380.80
70151;DHT22;57517;43.562;19.540;2023-09-18T00:09:55;487.20;2380.80
70151;DHT22;57517;43.562;19.540;2023-09-18T00:12:21;487.20;2380.80
70151;DHT22;57517;43.562;19.540;2023-09-18T00:14:50;487.20;2380.80
70151;DHT22;57517;43.562;19.540;2023-09-18T00:17:16;487.20;2380.80
70151;DHT22;57517;43.562;19.540;2023-09-18T00:19:43;487.30;2380.80
70151;DHT22;57517;43.562;19.540;2023-09-18T00:22:09;487.30;2380.80
70151;DHT22;57517;43.562;19.540;2023-09-18T00:24:34;487.20;2380.80
70151;DHT22;57517;43.562;19.540;2023-09-18T00:27:00;487.10;2380.80
70151;DHT22;57517;43.562;19.540;2023-09-18T00:29:26;486.90;2380.80
70151;DHT22;57517;43.562;19.540;2023-09-18T00:31:52;486.90;2380.80
70151;DHT22;57517;43.562;19.540;2023-09-18T00:34:18;486.90;2380.80
70151;DHT22;57517;43.562;19.540;2023-09-18T00:36:43;487.00;2380.80
70151;DHT22;57517;43.562;19.540;2023-09-18T00:39:09;487.00;2380.80
70151;DHT22;57517;43.562;19.540;2023-09-18T00:41:36;486.90;2380.80
70151;DHT22;57517;43.562;19.540;2023-09-18T00:44:02;486.90;2380.80
70151;DHT22;57517;43.562;19.540;2023-09-18T00:46:28;486.80;2380.80
70151;DHT22;57517;43.562;19.540;2023-09-18T00:48:54;486.60;2380.80
70151;DHT22;57517;43.562;19.540;2023-09-18T00:51:20;486.50;2380.80
70151;DHT22;57517;43.562;19.540;2023-09-18T00:53:47;486.40;2380.80
70151;DHT22;57517;43.562;19.540;2023-09-18T00:56:14;486.50;2380.80
70151;DHT22;57517;43.562;19.540;2023-09-18T00:58:41;486.60;2380.80
70151;DHT22;57517;43.562;19.540;2023-09-18T01:01:07;486.60;2380.80
70151;DHT22;57517;43.562;19.540;2023-09-18T01:03:34;486.70;2380.80
70151;DHT22;57517;43.562;19.540;2023-09-18T01:06:00;486.60;2380.80
70151;DHT22;57517;43.562;19.540;2023-09-18T01:08:25;486.60;2380.80
70151;DHT22;57517;43.562;19.540;2023-09-18T01:11:22;486.60;2380.80
70151;DHT22;57517;43.562;19.540;2023-09-18T01:14:19;486.60;2380.80
70151;DHT22;57517;43.562;19.540;2023-09-18T01:17:05;461.70;2380.80
70151;DHT22;57517;43.562;19.540;2023-09-18T01:19:41;461.70;2380.80
70151;DHT22;57517;43.562;19.540;2023-09-18T01:22:09;461.70;2380.80
70151;DHT22;57517;43.562;19.540;2023-09-18T01:24:36;461.70;2380.80
70151;DHT22;57517;43.562;19.540;2023-09-18T01:27:03;486.40;2380.80
70151;DHT22;57517;43.562;19.540;2023-09-18T01:29:32;486.50;2380.80
70151;DHT22;57517;43.562;19.540;2023-09-18T01:31:58;486.50;2380.80
70151;DHT22;57517;43.562;19.540;2023-09-18T01:34:42;486.40;2380.80
70151;DHT22;57517;43.562;19.540;2023-09-18T01:37:11;486.40;2380.80
70151;DHT22;57517;43.562;19.540;2023-09-18T01:39:38;486.50;2380.80
70151;DHT22;57517;43.562;19.540;2023-09-18T01:42:06;486.50;2380.80
70151;DHT22;57517;43.562;19.540;2023-09-18T01:44:32;486.60;2380.80
70151;DHT22;57517;43.562;19.540;2023-09-18T01:47:01;486.50;2380.80
70151;DHT22;57517;43.562;19.540;2023-09-18T01:49:37;486.50;2380.80
70151;DHT22;57517;43.562;19.540;2023-09-18T01:52:04;486.50;2380.80
70151;DHT22;57517;43.562;19.540;2023-09-18T01:54:31;461.70;2380.80
70151;DHT22;57517;43.562;19.540;2023-09-18T01:56:57;461.40;2380.80
70151;DHT22;57517;43.562;19.540;2023-09-18T01:59:23;461.20;2380.80
70151;DHT22;57517;43.562;19.540;2023-09-18T02:01:50;461.20;2380.80
70151;DHT22;57517;43.562;19.540;2023-09-18T02:04:17;461.30;2380.80
70151;DHT22;57517;43.562;19.540;2023-09-18T02:06:43;461.30;2380.80
70151;DHT22;57517;43.562;19.540;2023-09-18T02:09:09;461.40;2380.80
70151;DHT22;57517;43.562;19.540;2023-09-18T02:11:40;461.20;2380.80
70151;DHT22;57517;43.562;19.540;2023-09-18T02:14:06;461.10;2380.80
70151;DHT22;57517;43.562;19.540;2023-09-18T02:16:33;460.80;2380.80
70151;DHT22;57517;43.562;19.540;2023-09-18T02:18:59;436.10;2355.20
70151;DHT22;57517;43.562;19.540;2023-09-18T02:21:25;460.90;2380.80
70151;DHT22;57517;43.562;19.540;2023-09-18T02:23:52;460.90;2380.80
70151;DHT22;57517;43.562;19.540;2023-09-18T02:26:19;460.90;2380.80
70151;DHT22;57517;43.562;19.540;2023-09-18T02:28:45;461.00;2380.80
70151;DHT22;57517;43.562;19.540;2023-09-18T02:31:11;461.10;2380.80
70151;DHT22;57517;43.562;19.540;2023-09-18T02:33:37;461.20;2380.80
70151;DHT22;57517;43.562;19.540;2023-09-18T02:36:03;461.20;2380.80
70151;DHT22;57517;43.562;19.540;2023-09-18T02:38:29;461.20;2380.80
70151;DHT22;57517;43.562;19.540;2023-09-18T02:40:56;461.20;2380.80
70151;DHT22;57517;43.562;19.540;2023-09-18T02:43:23;461.10;2380.80
70151;DHT22;57517;43.562;19.540;2023-09-18T02:45:49;460.90;2380.80
70151;DHT22;57517;43.562;19.540;2023-09-18T02:48:16;460.90;2380.80
70151;DHT22;57517;43.562;19.540;2023-09-18T02:50:42;461.00;2380.80
70151;DHT22;57517;43.562;19.540;2023-09-18T02:53:21;461.10;2380.80
70151;DHT22;57517;43.562;19.540;2023-09-18T02:55:52;461.20;2380.80
70151;DHT22;57517;43.562;19.540;2023-09-18T02:58:18;461.20;2380.80
70151;DHT22;57517;43.562;19.540;2023-09-18T03:00:46;461.30;2380.80
70151;DHT22;57517;43.562;19.540;2023-09-18T03:03:13;461.30;2380.80
70151;DHT22;57517;43.562;19.540;2023-09-18T03:05:40;461.20;2380.80
70151;DHT22;57517;43.562;19.540;2023-09-18T03:08:06;460.90;2380.80
70151;DHT22;57517;43.562;19.540;2023-09-18T03:10:35;460.90;2380.80
70151;DHT22;57517;43.562;19.540;2023-09-18T03:13:02;460.90;2380.80
70151;DHT22;57517;43.562;19.540;2023-09-18T03:15:28;461.00;2380.80
70151;DHT22;57517;43.562;19.540;2023-09-18T03:17:54;461.00;2380.80
70151;DHT22;57517;43.562;19.540;2023-09-18T03:20:24;461.00;2380.80
70151;DHT22;57517;43.562;19.540;2023-09-18T03:23:01;436.10;2355.20
70151;DHT22;57517;43.562;19.540;2023-09-18T03:25:28;435.90;2355.20
70151;DHT22;57517;43.562;19.540;2023-09-18T03:27:55;435.70;2355.20
70151;DHT22;57517;43.562;19.540;2023-09-18T03:30:22;435.60;2355.20
70151;DHT22;57517;43.562;19.540;2023-09-18T03:32:50;435.60;2355.20
70151;DHT22;57517;43.562;19.540;2023-09-18T03:35:16;435.70;2355.20
70151;DHT22;57517;43.562;19.540;2023-09-18T03:37:45;435.90;2355.20
70151;DHT22;57517;43.562;19.540;2023-09-18T03:40:11;435.90;2355.20
70151;DHT22;57517;43.562;19.540;2023-09-18T03:42:37;435.90;2355.20
70151;DHT22;57517;43.562;19.540;2023-09-18T03:45:05;435.90;2355.20
70151;DHT22;57517;43.562;19.540;2023-09-18T03:47:32;435.70;2355.20
70151;DHT22;57517;43.562;19.540;2023-09-18T03:49:57;435.70;2355.20
70151;DHT22;57517;43.562;19.540;2023-09-18T03:52:23;435.70;2355.20
70151;DHT22;57517;43.562;19.540;2023-09-18T03:54:49;435.60;2355.20
70151;DHT22;57517;43.562;19.540;2023-09-18T03:57:15;435.60;2355.20
70151;DHT22;57517;43.562;19.540;2023-09-18T03:59:40;435.70;2355.20
70151;DHT22;57517;43.562;19.540;2023-09-18T04:02:06;435.90;2355.20
70151;DHT22;57517;43.562;19.540;2023-09-18T04:04:32;436.00;2355.20
70151;DHT22;57517;43.562;19.540;2023-09-18T04:06:58;436.00;2355.20
70151;DHT22;57517;43.562;19.540;2023-09-18T04:09:23;436.10;2355.20
70151;DHT22;57517;43.562;19.540;2023-09-18T04:11:49;436.10;2355.20
70151;DHT22;57517;43.562;19.540;2023-09-18T04:14:15;436.10;2355.20
70151;DHT22;57517;43.562;19.540;2023-09-18T04:16:41;436.10;2355.20
70151;DHT22;57517;43.562;19.540;2023-09-18T04:19:08;460.80;2380.80
70151;DHT22;57517;43.562;19.540;2023-09-18T04:21:35;460.80;2380.80
70151;DHT22;57517;43.562;19.540;2023-09-18T04:24:01;460.90;2380.80
70151;DHT22;57517;43.562;19.540;2023-09-18T04:26:27;460.90;2380.80
70151;DHT22;57517;43.562;19.540;2023-09-18T04:28:57;461.00;2380.80
70151;DHT22;57517;43.562;19.540;2023-09-18T04:31:23;461.00;2380.80
70151;DHT22;57517;43.562;19.540;2023-09-18T04:33:49;461.00;2380.80
70151;DHT22;57517;43.562;19.540;2023-09-18T04:36:15;461.10;2380.80
70151;DHT22;57517;43.562;19.540;2023-09-18T04:38:41;461.10;2380.80
70151;DHT22;57517;43.562;19.540;2023-09-18T04:41:07;461.20;2380.80
70151;DHT22;57517;43.562;19.540;2023-09-18T04:43:36;461.20;2380.80
70151;DHT22;57517;43.562;19.540;2023-09-18T04:46:01;461.20;2380.80
70151;DHT22;57517;43.562;19.540;2023-09-18T04:48:30;461.20;2380.80
70151;DHT22;57517;43.562;19.540;2023-09-18T04:50:56;461.20;2380.80
70151;DHT22;57517;43.562;19.540;2023-09-18T04:53:22;461.30;2380.80
70151;DHT22;57517;43.562;19.540;2023-09-18T04:55:48;461.30;2380.80
70151;DHT22;57517;43.562;19.540;2023-09-18T04:58:16;461.40;2380.80
70151;DHT22;57517;43.562;19.540;2023-09-18T05:00:42;461.40;2380.80
70151;DHT22;57517;43.562;19.540;2023-09-18T05:03:10;461.40;2380.80
70151;DHT22;57517;43.562;19.540;2023-09-18T05:05:36;461.50;2380.80
70151;DHT22;57517;43.562;19.540;2023-09-18T05:08:03;461.50;2380.80
70151;DHT22;57517;43.562;19.540;2023-09-18T05:10:30;461.50;2380.80
70151;DHT22;57517;43.562;19.540;2023-09-18T05:12:56;461.50;2380.80
70151;DHT22;57517;43.562;19.540;2023-09-18T05:15:24;461.40;2380.80
70151;DHT22;57517;43.562;19.540;2023-09-18T05:17:52;461.20;2380.80
70151;DHT22;57517;43.562;19.540;2023-09-18T05:20:21;461.20;2380.80
70151;DHT22;57517;43.562;19.540;2023-09-18T05:22:50;461.20;2380.80
70151;DHT22;57517;43.562;19.540;2023-09-18T05:25:19;461.20;2380.80
70151;DHT22;57517;43.562;19.540;2023-09-18T05:27:46;461.00;2380.80
70151;DHT22;57517;43.562;19.540;2023-09-18T05:30:15;460.90;2380.80
70151;DHT22;57517;43.562;19.540;2023-09-18T05:32:42;460.90;2380.80
70151;DHT22;57517;43.562;19.540;2023-09-18T05:35:09;460.90;2380.80
70151;DHT22;57517;43.562;19.540;2023-09-18T05:37:40;460.90;2380.80
70151;DHT22;57517;43.562;19.540;2023-09-18T05:40:10;460.90;2380.80
70151;DHT22;57517;43.562;19.540;2023-09-18T05:42:37;436.10;2355.20
70151;DHT22;57517;43.562;19.540;2023-09-18T05:45:04;436.10;2355.20
70151;DHT22;57517;43.562;19.540;2023-09-18T05:47:32;460.80;2380.80
70151;DHT22;57517;43.562;19.540;2023-09-18T05:50:10;460.90;2380.80
70151;DHT22;57517;43.562;19.540;2023-09-18T05:52:40;461.10;2380.80
70151;DHT22;57517;43.562;19.540;2023-09-18T05:55:06;461.10;2380.80
70151;DHT22;57517;43.562;19.540;2023-09-18T05:57:33;461.10;2380.80
70151;DHT22;57517;43.562;19.540;2023-09-18T05:59:59;461.00;2380.80
70151;DHT22;57517;43.562;19.540;2023-09-18T06:02:25;461.00;2380.80
70151;DHT22;57517;43.562;19.540;2023-09-18T06:04:58;461.20;2380.80
70151;DHT22;57517;43.562;19.540;2023-09-18T06:07:26;461.20;2380.80
70151;DHT22;57517;43.562;19.540;2023-09-18T06:09:52;461.30;2380.80
70151;DHT22;57517;43.562;19.540;2023-09-18T06:12:18;461.50;2380.80
70151;DHT22;57517;43.562;19.540;2023-09-18T06:14:44;461.70;2380.80
70151;DHT22;57517;43.562;19.540;2023-09-18T06:17:11;486.60;2380.80
70151;DHT22;57517;43.562;19.540;2023-09-18T06:19:37;486.80;2380.80
70151;DHT22;57517;43.562;19.540;2023-09-18T06:22:04;563.60;2073.60
70151;DHT22;57517;43.562;19.540;2023-09-18T06:24:30;614.50;1715.20
70151;DHT22;57517;43.562;19.540;2023-09-18T06:26:56;640.80;1587.20
70151;DHT22;57517;43.562;19.540;2023-09-18T06:29:21;691.30;1459.20
70151;DHT22;57517;43.562;19.540;2023-09-18T06:31:49;716.90;1382.40
70151;DHT22;57517;43.562;19.540;2023-09-18T06:34:14;742.80;1356.80
70151;DHT22;57517;43.562;19.540;2023-09-18T06:36:40;768.50;1228.80
70151;DHT22;57517;43.562;19.540;2023-09-18T06:39:06;794.30;1203.20
70151;DHT22;57517;43.562;19.540;2023-09-18T06:41:32;819.90;1126.40
70151;DHT22;57517;43.562;19.540;2023-09-18T06:43:59;845.20;1126.40
70151;DHT22;57517;43.562;19.540;2023-09-18T06:46:28;870.40;1075.20
70151;DHT22;57517;43.562;19.540;2023-09-18T06:48:54;896.10;1024.00
70151;DHT22;57517;43.562;19.540;2023-09-18T06:51:22;896.00;998.40
70151;DHT22;57517;43.562;19.540;2023-09-18T06:56:14;921.80;947.20
70151;DHT22;57517;43.562;19.540;2023-09-18T06:58:40;922.00;921.60
70151;DHT22;57517;43.562;19.540;2023-09-18T07:06:00;973.00;870.40
70151;DHT22;57517;43.562;19.540;2023-09-18T07:08:26;973.50;870.40
70151;DHT22;57517;43.562;19.540;2023-09-18T07:10:52;998.50;870.40
70151;DHT22;57517;43.562;19.540;2023-09-18T07:13:18;998.50;870.40
70151;DHT22;57517;43.562;19.540;2023-09-18T07:35:23;1050.50;768.00
70151;DHT22;57517;43.562;19.540;2023-09-18T07:37:49;1050.40;793.60
70151;DHT22;57517;43.562;19.540;2023-09-18T07:50:03;1101.10;716.80
70151;DHT22;57517;43.562;19.540;2023-09-18T08:02:21;1126.60;716.80
70151;DHT22;57517;43.562;19.540;2023-09-18T08:04:48;1126.80;691.20
70151;DHT22;57517;43.562;19.540;2023-09-18T08:07:13;1127.10;691.20
70151;DHT22;57517;43.562;19.540;2023-09-18T09:25:50;973.10;793.60
70151;DHT22;57517;43.562;19.540;2023-09-18T09:28:16;947.90;793.60
70151;DHT22;57517;43.562;19.540;2023-09-18T09:43:14;870.50;947.20
70151;DHT22;57517;43.562;19.540;2023-09-18T09:45:41;845.70;972.80
70151;DHT22;57517;43.562;19.540;2023-09-18T09:48:07;845.50;972.80
70151;DHT22;57517;43.562;19.540;2023-09-18T09:57:58;845.10;998.40
70151;DHT22;57517;43.562;19.540;2023-09-18T10:00:36;845.00;998.40
70151;DHT22;57517;43.562;19.540;2023-09-18T10:03:12;845.00;1024.00
70151;DHT22;57517;43.562;19.540;2023-09-18T10:05:40;844.80;1024.00
70151;DHT22;57517;43.562;19.540;2023-09-18T10:08:23;820.00;1024.00
70151;DHT22;57517;43.562;19.540;2023-09-18T10:10:55;819.90;998.40
70151;DHT22;57517;43.562;19.540;2023-09-18T10:18:47;819.70;998.40
70151;DHT22;57517;43.562;19.540;2023-09-18T10:24:40;819.40;1049.60
70151;DHT22;57517;43.562;19.540;2023-09-18T10:27:12;819.20;1024.00
70151;DHT22;57517;43.562;19.540;2023-09-18T10:29:40;794.50;998.40
70151;DHT22;57517;43.562;19.540;2023-09-18T10:32:07;819.20;998.40
70151;DHT22;57517;43.562;19.540;2023-09-18T10:34:34;794.40;998.40
70151;DHT22;57517;43.562;19.540;2023-09-18T10:37:02;794.30;1024.00
70151;DHT22;57517;43.562;19.540;2023-09-18T10:39:35;794.20;1024.00
70151;DHT22;57517;43.562;19.540;2023-09-18T10:42:02;794.30;1024.00
70151;DHT22;57517;43.562;19.540;2023-09-18T10:44:29;794.30;1024.00
70151;DHT22;57517;43.562;19.540;2023-09-18T10:47:00;794.40;1024.00
70151;DHT22;57517;43.562;19.540;2023-09-18T10:49:26;794.40;1049.60
70151;DHT22;57517;43.562;19.540;2023-09-18T10:51:56;794.40;1024.00
70151;DHT22;57517;43.562;19.540;2023-09-18T10:54:23;794.50;1024.00
70151;DHT22;57517;43.562;19.540;2023-09-18T10:56:50;794.50;1024.00
70151;DHT22;57517;43.562;19.540;2023-09-18T10:59:16;794.50;998.40
70151;DHT22;57517;43.562;19.540;2023-09-18T11:01:43;794.50;998.40
70151;DHT22;57517;43.562;19.540;2023-09-18T11:04:10;794.50;998.40
70151;DHT22;57517;43.562;19.540;2023-09-18T11:09:21;794.50;998.40
70151;DHT22;57517;43.562;19.540;2023-09-18T11:11:52;819.30;1024.00
70151;DHT22;57517;43.562;19.540;2023-09-18T11:14:22;819.30;998.40
70151;DHT22;57517;43.562;19.540;2023-09-18T11:16:49;819.20;998.40
70151;DHT22;57517;43.562;19.540;2023-09-18T11:19:18;819.30;1024.00
70151;DHT22;57517;43.562;19.540;2023-09-18T11:21:47;819.30;998.40
70151;DHT22;57517;43.562;19.540;2023-09-18T11:24:19;819.30;998.40
70151;DHT22;57517;43.562;19.540;2023-09-18T11:26:49;819.30;1024.00
70151;DHT22;57517;43.562;19.540;2023-09-18T11:29:21;819.30;1024.00
70151;DHT22;57517;43.562;19.540;2023-09-18T11:31:55;819.30;998.40
70151;DHT22;57517;43.562;19.540;2023-09-18T11:36:50;819.40;1024.00
70151;DHT22;57517;43.562;19.540;2023-09-18T11:39:41;819.40;998.40
70151;DHT22;57517;43.562;19.540;2023-09-18T11:42:12;819.40;998.40
70151;DHT22;57517;43.562;19.540;2023-09-18T11:44:42;819.40;998.40
70151;DHT22;57517;43.562;19.540;2023-09-18T11:47:15;819.40;998.40
70151;DHT22;57517;43.562;19.540;2023-09-18T11:49:54;819.40;972.80
70151;DHT22;57517;43.562;19.540;2023-09-18T11:52:30;819.40;972.80
70151;DHT22;57517;43.562;19.540;2023-09-18T11:54:58;819.30;998.40
70151;DHT22;57517;43.562;19.540;2023-09-18T11:57:24;819.30;972.80
70151;DHT22;57517;43.562;19.540;2023-09-18T11:59:50;819.30;972.80
70151;DHT22;57517;43.562;19.540;2023-09-18T12:02:30;819.20;972.80
70151;DHT22;57517;43.562;19.540;2023-09-18T12:05:17;819.20;947.20
70151;DHT22;57517;43.562;19.540;2023-09-18T12:07:47;794.50;998.40
70151;DHT22;57517;43.562;19.540;2023-09-18T12:10:15;794.50;998.40
70151;DHT22;57517;43.562;19.540;2023-09-18T12:12:43;794.30;972.80
70151;DHT22;57517;43.562;19.540;2023-09-18T12:15:14;794.30;947.20
70151;DHT22;57517;43.562;19.540;2023-09-18T12:17:42;794.30;972.80
70151;DHT22;57517;43.562;19.540;2023-09-18T12:20:15;794.20;1024.00
70151;DHT22;57517;43.562;19.540;2023-09-18T12:22:47;794.20;998.40
70151;DHT22;57517;43.562;19.540;2023-09-18T12:25:14;794.20;972.80
70151;DHT22;57517;43.562;19.540;2023-09-18T12:27:43;794.20;998.40
70151;DHT22;57517;43.562;19.540;2023-09-18T12:30:11;794.20;972.80
70151;DHT22;57517;43.562;19.540;2023-09-18T12:32:40;794.10;998.40
70151;DHT22;57517;43.562;19.540;2023-09-18T12:35:06;794.00;1024.00
70151;DHT22;57517;43.562;19.540;2023-09-18T12:37:43;794.00;998.40
70151;DHT22;57517;43.562;19.540;2023-09-18T12:40:28;794.00;998.40
70151;DHT22;57517;43.562;19.540;2023-09-18T12:42:56;794.00;998.40
70151;DHT22;57517;43.562;19.540;2023-09-18T12:45:23;794.00;998.40
70151;DHT22;57517;43.562;19.540;2023-09-18T12:47:50;794.00;1024.00
70151;DHT22;57517;43.562;19.540;2023-09-18T12:50:16;793.90;998.40
70151;DHT22;57517;43.562;19.540;2023-09-18T12:52:42;793.90;972.80
70151;DHT22;57517;43.562;19.540;2023-09-18T12:55:19;793.90;972.80
70151;DHT22;57517;43.562;19.540;2023-09-18T12:57:45;793.90;998.40
70151;DHT22;57517;43.562;19.540;2023-09-18T13:00:11;794.00;998.40
70151;DHT22;57517;43.562;19.540;2023-09-18T13:02:39;794.00;972.80
70151;DHT22;57517;43.562;19.540;2023-09-18T13:05:05;794.00;972.80
70151;DHT22;57517;43.562;19.540;2023-09-18T13:07:31;793.90;972.80
70151;DHT22;57517;43.562;19.540;2023-09-18T13:10:09;794.00;972.80
70151;DHT22;57517;43.562;19.540;2023-09-18T13:12:51;793.90;972.80
70151;DHT22;57517;43.562;19.540;2023-09-18T13:15:33;793.90;972.80
70151;DHT22;57517;43.562;19.540;2023-09-18T13:18:01;793.90;947.20
70151;DHT22;57517;43.562;19.540;2023-09-18T13:20:34;793.90;947.20
70151;DHT22;57517;43.562;19.540;2023-09-18T13:23:00;793.80;972.80
70151;DHT22;57517;43.562;19.540;2023-09-18T13:25:30;793.80;972.80
70151;DHT22;57517;43.562;19.540;2023-09-18T13:27:57;793.90;972.80
70151;DHT22;57517;43.562;19.540;2023-09-18T13:30:23;793.90;972.80
70151;DHT22;57517;43.562;19.540;2023-09-18T13:32:50;793.80;998.40
70151;DHT22;57517;43.562;19.540;2023-09-18T13:35:19;793.80;972.80
70151;DHT22;57517;43.562;19.540;2023-09-18T13:37:45;793.80;972.80
70151;DHT22;57517;43.562;19.540;2023-09-18T13:40:11;793.90;972.80
70151;DHT22;57517;43.562;19.540;2023-09-18T13:42:38;793.90;1024.00
70151;DHT22;57517;43.562;19.540;2023-09-18T13:45:07;793.80;972.80
70151;DHT22;57517;43.562;19.540;2023-09-18T13:47:34;793.90;972.80
70151;DHT22;57517;43.562;19.540;2023-09-18T13:50:01;793.90;998.40
70151;DHT22;57517;43.562;19.540;2023-09-18T13:52:27;793.80;998.40
70151;DHT22;57517;43.562;19.540;2023-09-18T13:54:53;793.80;998.40
70151;DHT22;57517;43.562;19.540;2023-09-18T13:57:19;793.80;998.40
70151;DHT22;57517;43.562;19.540;2023-09-18T13:59:46;793.80;998.40
70151;DHT22;57517;43.562;19.540;2023-09-18T14:02:13;793.80;1049.60
70151;DHT22;57517;43.562;19.540;2023-09-18T14:04:38;793.80;1024.00
70151;DHT22;57517;43.562;19.540;2023-09-18T14:07:07;793.80;998.40
70151;DHT22;57517;43.562;19.540;2023-09-18T14:09:34;793.80;998.40
70151;DHT22;57517;43.562;19.540;2023-09-18T14:12:00;793.70;1049.60
70151;DHT22;57517;43.562;19.540;2023-09-18T14:14:26;793.60;1075.20
70151;DHT22;57517;43.562;19.540;2023-09-18T14:16:52;768.80;1049.60
70151;DHT22;57517;43.562;19.540;2023-09-18T14:19:19;768.80;1075.20
70151;DHT22;57517;43.562;19.540;2023-09-18T14:21:45;768.70;1075.20
70151;DHT22;57517;43.562;19.540;2023-09-18T14:24:11;768.70;1049.60
70151;DHT22;57517;43.562;19.540;2023-09-18T14:26:37;768.70;1049.60
70151;DHT22;57517;43.562;19.540;2023-09-18T14:29:07;768.70;1024.00
70151;DHT22;57517;43.562;19.540;2023-09-18T14:31:34;768.70;1024.00
70151;DHT22;57517;43.562;19.540;2023-09-18T14:33:59;768.70;1024.00
70151;DHT22;57517;43.562;19.540;2023-09-18T14:36:26;768.70;1024.00
70151;DHT22;57517;43.562;19.540;2023-09-18T14:38:51;768.80;998.40
70151;DHT22;57517;43.562;19.540;2023-09-18T14:41:17;768.70;1075.20
70151;DHT22;57517;43.562;19.540;2023-09-18T14:43:45;768.70;1024.00
70151;DHT22;57517;43.562;19.540;2023-09-18T14:46:11;768.70;998.40
70151;DHT22;57517;43.562;19.540;2023-09-18T14:48:37;768.60;1049.60
70151;DHT22;57517;43.562;19.540;2023-09-18T14:51:04;768.40;1075.20
70151;DHT22;57517;43.562;19.540;2023-09-18T14:53:32;768.50;998.40
70151;DHT22;57517;43.562;19.540;2023-09-18T14:55:59;768.50;998.40
70151;DHT22;57517;43.562;19.540;2023-09-18T14:58:25;768.60;998.40
70151;DHT22;57517;43.562;19.540;2023-09-18T15:00:51;768.60;998.40
70151;DHT22;57517;43.562;19.540;2023-09-18T15:03:16;768.60;998.40
70151;DHT22;57517;43.562;19.540;2023-09-18T15:05:42;768.60;998.40
70151;DHT22;57517;43.562;19.540;2023-09-18T15:08:08;768.50;1049.60
70151;DHT22;57517;43.562;19.540;2023-09-18T15:10:34;768.40;1075.20
70151;DHT22;57517;43.562;19.540;2023-09-18T15:13:00;768.40;1075.20
70151;DHT22;57517;43.562;19.540;2023-09-18T15:15:25;768.20;1100.80
70151;DHT22;57517;43.562;19.540;2023-09-18T15:17:52;768.10;1126.40
70151;DHT22;57517;43.562;19.540;2023-09-18T15:20:18;768.10;1126.40
70151;DHT22;57517;43.562;19.540;2023-09-18T15:22:44;743.30;1100.80
70151;DHT22;57517;43.562;19.540;2023-09-18T15:25:10;743.30;1100.80
70151;DHT22;57517;43.562;19.540;2023-09-18T15:27:37;743.30;1100.80
70151;DHT22;57517;43.562;19.540;2023-09-18T15:30:04;743.30;1100.80
70151;DHT22;57517;43.562;19.540;2023-09-18T15:32:49;743.30;1126.40
70151;DHT22;57517;43.562;19.540;2023-09-18T15:35:16;743.30;1126.40
70151;DHT22;57517;43.562;19.540;2023-09-18T15:37:42;743.20;1126.40
70151;DHT22;57517;43.562;19.540;2023-09-18T15:40:09;743.20;1100.80
70151;DHT22;57517;43.562;19.540;2023-09-18T15:42:36;743.10;1126.40
70151;DHT22;57517;43.562;19.540;2023-09-18T15:45:07;743.10;1100.80
70151;DHT22;57517;43.562;19.540;2023-09-18T15:47:34;743.10;1126.40
70151;DHT22;57517;43.562;19.540;2023-09-18T15:50:00;743.00;1152.00
70151;DHT22;57517;43.562;19.540;2023-09-18T15:52:26;743.00;1152.00
70151;DHT22;57517;43.562;19.540;2023-09-18T15:54:52;743.00;1152.00
70151;DHT22;57517;43.562;19.540;2023-09-18T15:57:17;742.90;1152.00
70151;DHT22;57517;43.562;19.540;2023-09-18T15:59:43;742.90;1177.60
70151;DHT22;57517;43.562;19.540;2023-09-18T16:02:09;742.80;1177.60
70151;DHT22;57517;43.562;19.540;2023-09-18T16:04:35;742.80;1177.60
70151;DHT22;57517;43.562;19.540;2023-09-18T16:07:04;742.80;1203.20
70151;DHT22;57517;43.562;19.540;2023-09-18T16:09:29;742.80;1203.20
70151;DHT22;57517;43.562;19.540;2023-09-18T16:11:55;742.70;1203.20
70151;DHT22;57517;43.562;19.540;2023-09-18T16:14:21;742.70;1203.20
70151;DHT22;57517;43.562;19.540;2023-09-18T16:16:47;742.60;1228.80
70151;DHT22;57517;43.562;19.540;2023-09-18T16:19:14;742.60;1228.80
70151;DHT22;57517;43.562;19.540;2023-09-18T16:21:39;742.50;1228.80
70151;DHT22;57517;43.562;19.540;2023-09-18T16:24:05;742.50;1254.40
70151;DHT22;57517;43.562;19.540;2023-09-18T16:26:35;742.40;1254.40
70151;DHT22;57517;43.562;19.540;2023-09-18T16:29:01;717.70;1228.80
70151;DHT22;57517;43.562;19.540;2023-09-18T16:31:27;717.50;1280.00
70151;DHT22;57517;43.562;19.540;2023-09-18T16:33:54;717.50;1280.00
70151;DHT22;57517;43.562;19.540;2023-09-18T16:36:20;717.40;1280.00
70151;DHT22;57517;43.562;19.540;2023-09-18T16:38:45;717.20;1280.00
70151;DHT22;57517;43.562;19.540;2023-09-18T16:41:11;717.20;1280.00
70151;DHT22;57517;43.562;19.540;2023-09-18T16:43:37;717.00;1280.00
70151;DHT22;57517;43.562;19.540;2023-09-18T16:46:06;717.10;1280.00
70151;DHT22;57517;43.562;19.540;2023-09-18T16:48:32;717.00;1280.00
70151;DHT22;57517;43.562;19.540;2023-09-18T16:51:00;717.10;1280.00
70151;DHT22;57517;43.562;19.540;2023-09-18T16:53:26;717.10;1280.00
70151;DHT22;57517;43.562;19.540;2023-09-18T16:55:52;717.10;1305.60
70151;DHT22;57517;43.562;19.540;2023-09-18T16:58:18;717.00;1305.60
70151;DHT22;57517;43.562;19.540;2023-09-18T17:00:44;717.00;1305.60
70151;DHT22;57517;43.562;19.540;2023-09-18T17:03:10;692.00;1305.60
70151;DHT22;57517;43.562;19.540;2023-09-18T17:05:36;691.90;1331.20
70151;DHT22;57517;43.562;19.540;2023-09-18T17:08:03;691.70;1331.20
70151;DHT22;57517;43.562;19.540;2023-09-18T17:10:34;691.70;1331.20
70151;DHT22;57517;43.562;19.540;2023-09-18T17:13:00;691.90;1331.20
70151;DHT22;57517;43.562;19.540;2023-09-18T17:15:26;691.70;1331.20
70151;DHT22;57517;43.562;19.540;2023-09-18T17:17:52;691.60;1356.80